Pittsburgh, PA

5:58 AM EDT on September 30, 2016 (GMT -0400)
White Oak, PA 15131-1531 | | Change Station

Elev 1076 ft 40.35 °N, 79.82 °W | Updated 5 seconds ago

Overcast
Overcast
57.6 °F
Feels Like 57.6 °F
N
2.7
Wind Variable Wind from NE
Gusts 4.9 mph

Today
High -- | Low -- °F
--% Chance of Precip.
Yesterday
High -- | Low -- °F
Precip. -- in
Pressure 30.17 in
Visibility 8.0 miles
Clouds Mostly Cloudy 900 ft
Overcast 2200 ft
Dew Point 57 °F
Humidity 99%
Rainfall 0.02 in
Snow Depth Not available.
7:15 AM 7:02 PM
Waning Crescent, 0% visible
METAR KAGC 300953Z VRB05KT 8SM BKN009 OVC022 14/12 A3016 RMK AO2 SLP215 T01390117
Pressure 30.17 in
Visibility 8.0 miles
Clouds Mostly Cloudy 900 ft
Overcast 2200 ft
Dew Point 57 °F
Humidity 99%
Rainfall 0.02 in
Snow Depth Not available.
7:15 AM 7:02 PM
Waning Crescent, 0% visible
METAR KAGC 300953Z VRB05KT 8SM BKN009 OVC022 14/12 A3016 RMK AO2 SLP215 T01390117

10-Day Weather Forecast

Almanac

Astronomy

Sep. 30, 2016 Rise Set
Actual Time
Civil Twilight
Nautical Twilight
Astronomical Twilight
Moon
Length of Visible Light
Length of Day
Tomorrow will be .
, % of the Moon is Illuminated

Today's Extremes

State Highs State Lows

Community

WunderPhotos

Upload Photos

1,942,684 photos uploaded!

WunderBlog® & News

Nearby

Air Quality

  Air Quality AQ Index Pollutant
Not available.

Snow Depth

Station Depth Elevation

Earthquake Activity

City Distance Mag. Time & Date
Minimum magnitude displayed is 2.5.

Coastal Water Temperatures

Place Temperature

Stations

Nearby Weather Stations

Station Location Temp. Windchill Dew Point Humidity Wind Precip. Elev Updated Type
                   

Watches & Warnings

There are currently no watches in effect.